Time;durP1;ratioP1;P1;durP2;ratioP2;P2;SDS_P1;SDS_P2;PMS_P1;PMS_P2;Temp;Humidity;BMP_temperature;BMP_pressure;BME280_temperature;BME280_humidity;BME280_pressure;Samples;Min_cycle;Max_cycle;Signal;HPM_P1;HPM_P2
2023/06/20 00:01:54;;;;;;;18.55;11.38;;;;;;;19.83;68.54;101467.78;7390360;19;20019;-61
2023/06/20 00:04:22;;;;;;;13.25;11.02;;;;;;;19.89;67.81;101479.75;7389175;19;20409;-59
2023/06/20 00:06:49;;;;;;;15.20;11.40;;;;;;;19.91;68.09;101477.75;7390132;19;20023;-55
2023/06/20 00:09:16;;;;;;;16.20;10.57;;;;;;;19.97;67.54;101482.50;7390111;19;20047;-60
2023/06/20 00:11:44;;;;;;;15.32;11.93;;;;;;;20.07;67.51;101485.97;7388203;19;20032;-59
2023/06/20 00:14:12;;;;;;;17.80;12.85;;;;;;;19.98;67.72;101489.56;7390248;19;20483;-59
2023/06/20 00:17:09;;;;;;;16.45;11.38;;;;;;;19.93;68.23;101490.03;7388829;19;20014;-60
2023/06/20 00:19:36;;;;;;;17.88;12.07;;;;;;;19.63;68.96;101471.66;7386830;19;20494;-60
2023/06/20 00:22:04;;;;;;;17.85;12.07;;;;;;;19.60;68.86;101482.66;7388207;19;20031;-60
2023/06/20 00:24:32;;;;;;;15.75;11.32;;;;;;;19.77;68.23;101478.31;7386826;19;20046;-59
2023/06/20 00:27:01;;;;;;;19.02;12.10;;;;;;;19.84;68.29;101482.94;7388596;19;20035;-60
2023/06/20 00:29:29;;;;;;;17.88;12.98;;;;;;;19.88;67.86;101487.00;7390116;19;20032;-60
2023/06/20 00:31:56;;;;;;;18.00;12.77;;;;;;;19.90;68.13;101487.66;7388482;19;20091;-59
2023/06/20 00:34:23;;;;;;;20.02;12.80;;;;;;;19.97;67.62;101490.59;7389835;19;20050;-58
2023/06/20 00:36:51;;;;;;;17.13;12.57;;;;;;;19.98;67.71;101486.03;7389737;19;20322;-59
2023/06/20 00:39:18;;;;;;;17.08;12.30;;;;;;;19.90;68.15;101479.59;7389476;19;20014;-59
2023/06/20 00:41:45;;;;;;;18.17;13.40;;;;;;;19.85;68.00;101481.91;7390448;19;20043;-60
2023/06/20 00:44:13;;;;;;;17.17;12.50;;;;;;;19.92;68.18;101474.91;7389704;19;20019;-60
2023/06/20 00:46:41;;;;;;;18.10;12.88;;;;;;;19.95;67.53;101471.06;7388813;19;20081;-61
2023/06/20 00:49:10;;;;;;;17.45;13.07;;;;;;;19.93;67.61;101470.38;7389689;19;20372;-60
2023/06/20 00:51:37;;;;;;;19.48;13.43;;;;;;;19.87;68.18;101471.00;7387350;19;20011;-60
2023/06/20 00:54:05;;;;;;;17.42;13.15;;;;;;;19.90;67.95;101468.00;7389415;19;20495;-59
2023/06/20 00:56:33;;;;;;;16.80;13.18;;;;;;;19.89;67.85;101467.16;7388402;19;20051;-59
2023/06/20 00:59:03;;;;;;;17.77;13.55;;;;;;;19.85;67.84;101464.94;7396680;19;20018;-63
2023/06/20 01:01:31;;;;;;;17.83;14.35;;;;;;;19.86;67.86;101472.00;7392663;19;20018;-63
2023/06/20 01:04:00;;;;;;;19.55;14.77;;;;;;;19.84;68.01;101474.00;7397267;19;20126;-63
2023/06/20 01:06:44;;;;;;;18.73;14.15;;;;;;;19.77;68.67;101472.94;7394527;19;20050;-63
2023/06/20 01:09:14;;;;;;;;;;;;;;;19.53;69.73;101465.47;7397780;19;20095;-63
2023/06/20 01:12:03;;;;;;;19.27;14.77;;;;;;;19.45;69.82;101464.38;7396673;19;19951;-63
2023/06/20 01:15:09;;;;;;;16.55;13.85;;;;;;;19.51;69.65;101468.31;7397017;19;20033;-61
2023/06/20 01:18:02;;;;;;;20.55;15.32;;;;;;;19.45;69.68;101475.13;7395224;19;20006;-63
2023/06/20 01:20:55;;;;;;;21.73;15.47;;;;;;;19.44;69.68;101467.25;7394378;19;20018;-62
2023/06/20 01:23:43;;;;;;;19.08;14.90;;;;;;;19.38;70.00;101471.38;7396589;19;20035;-60
2023/06/20 01:26:30;;;;;;;19.25;14.90;;;;;;;19.28;70.05;101486.72;7395204;19;20074;-60
2023/06/20 01:29:26;;;;;;;19.98;14.82;;;;;;;19.33;69.88;101476.38;7394625;19;20032;-60
2023/06/20 01:31:57;;;;;;;19.05;16.15;;;;;;;19.29;70.04;101479.50;7393673;19;20018;-59
2023/06/20 01:34:27;;;;;;;18.17;14.30;;;;;;;19.29;69.90;101474.16;7395984;19;20025;-62
2023/06/20 01:37:00;;;;;;;18.42;14.98;;;;;;;19.35;69.59;101476.22;7394730;19;20018;-59
2023/06/20 01:39:33;;;;;;;22.52;16.13;;;;;;;19.37;69.67;101471.53;7394706;19;20023;-59
2023/06/20 01:42:02;;;;;;;;;;;;;;;18.99;71.00;101476.16;7394399;19;20487;-59
2023/06/20 01:44:32;;;;;;;23.25;16.83;;;;;;;18.77;71.61;101469.34;7394366;19;19926;-61
2023/06/20 01:47:02;;;;;;;20.42;16.27;;;;;;;19.11;70.38;101466.91;7394305;19;20011;-60
2023/06/20 01:49:31;;;;;;;20.55;15.68;;;;;;;19.15;70.12;101478.19;7393567;19;20468;-59
2023/06/20 01:52:00;;;;;;;22.50;17.00;;;;;;;18.82;71.41;101463.56;7395013;19;20361;-59
2023/06/20 01:54:31;;;;;;;19.42;16.10;;;;;;;19.02;70.75;101467.81;7395432;19;20019;-60
2023/06/20 01:57:01;;;;;;;20.23;15.73;;;;;;;19.13;70.01;101472.97;7394144;19;20097;-59
2023/06/20 01:59:28;;;;;;;20.98;18.27;;;;;;;19.10;69.89;101467.91;7394326;19;20390;-59
2023/06/20 02:01:59;;;;;;;22.33;17.08;;;;;;;19.11;70.07;101464.22;7395318;19;20014;-60
2023/06/20 02:04:27;;;;;;;21.35;17.15;;;;;;;19.26;69.66;101456.47;7395255;19;20019;-60
2023/06/20 02:06:56;;;;;;;20.85;16.45;;;;;;;19.20;69.68;101457.94;7393843;19;20026;-61
2023/06/20 02:09:24;;;;;;;20.75;16.85;;;;;;;19.29;69.41;101458.03;7393366;19;20513;-60
2023/06/20 02:11:53;;;;;;;18.70;15.73;;;;;;;19.23;69.05;101460.34;7394570;19;20102;-59
2023/06/20 02:14:20;;;;;;;20.65;16.50;;;;;;;19.20;69.74;101454.44;7394733;19;20020;-60
2023/06/20 02:16:49;;;;;;;19.90;16.13;;;;;;;19.31;68.90;101456.03;7393832;19;20018;-60
2023/06/20 02:19:17;;;;;;;21.15;17.48;;;;;;;18.94;70.18;101460.50;7393883;19;20051;-60
2023/06/20 02:21:46;;;;;;;21.27;16.92;;;;;;;18.75;71.16;101449.88;7393800;19;20027;-60
2023/06/20 02:24:19;;;;;;;22.30;17.80;;;;;;;18.58;71.61;101459.53;7394459;19;20037;-60
2023/06/20 02:26:48;;;;;;;23.92;19.92;;;;;;;18.31;72.48;101457.66;7393458;19;20018;-60
2023/06/20 02:29:17;;;;;;;23.33;18.95;;;;;;;18.54;71.99;101447.41;7391995;19;20018;-60
2023/06/20 02:31:47;;;;;;;22.48;19.08;;;;;;;18.91;70.12;101452.75;7393514;19;20010;-60
2023/06/20 02:34:19;;;;;;;25.52;18.98;;;;;;;18.69;70.70;101445.06;7394092;19;20019;-61
2023/06/20 02:36:48;;;;;;;22.65;18.48;;;;;;;18.79;70.38;101448.59;7393104;19;20022;-61
2023/06/20 02:39:15;;;;;;;21.65;18.30;;;;;;;18.63;71.01;101445.69;7394065;19;20025;-61
2023/06/20 02:41:43;;;;;;;21.92;19.00;;;;;;;18.47;71.76;101438.28;7393598;19;20018;-62
2023/06/20 02:44:10;;;;;;;21.80;17.90;;;;;;;18.40;71.80;101434.50;7393593;19;20046;-59
2023/06/20 02:46:46;;;;;;;22.75;18.95;;;;;;;18.63;71.09;101443.00;7391236;19;20023;-54
2023/06/20 02:49:20;;;;;;;25.98;19.67;;;;;;;18.47;71.51;101446.31;7391534;19;20514;-55
2023/06/20 02:52:05;;;;;;;21.88;18.60;;;;;;;18.29;72.02;101445.41;7392946;19;20017;-54
2023/06/20 02:54:45;;;;;;;24.17;20.20;;;;;;;18.18;72.47;101447.25;7393030;19;20018;-58
2023/06/20 02:57:18;;;;;;;22.63;19.38;;;;;;;18.48;71.75;101448.00;7391899;19;20019;-61
2023/06/20 02:59:50;;;;;;;24.08;19.15;;;;;;;18.37;71.91;101453.56;7392493;19;20091;-59
2023/06/20 03:02:19;;;;;;;23.10;19.50;;;;;;;18.26;72.02;101454.56;7393215;19;20019;-61
2023/06/20 03:04:48;;;;;;;24.50;20.10;;;;;;;18.11;72.82;101456.03;7393197;19;20023;-61
2023/06/20 03:07:19;;;;;;;24.95;20.73;;;;;;;18.13;72.66;101452.22;7391496;19;20018;-61
2023/06/20 03:09:47;;;;;;;21.63;18.52;;;;;;;18.29;72.15;101448.09;7392371;19;20018;-62
2023/06/20 03:12:15;;;;;;;25.17;20.80;;;;;;;18.20;72.23;101450.66;7392437;19;20486;-61
2023/06/20 03:14:42;;;;;;;24.00;20.10;;;;;;;18.34;71.68;101451.16;7392727;19;20040;-60
2023/06/20 03:17:10;;;;;;;22.77;19.30;;;;;;;18.27;71.99;101451.72;7391259;19;20503;-60
2023/06/20 03:19:37;;;;;;;25.63;20.42;;;;;;;18.22;72.35;101448.66;7388326;19;20035;-62
2023/06/20 03:22:04;;;;;;;21.48;18.83;;;;;;;18.51;71.29;101445.03;7391941;19;20110;-61
2023/06/20 03:24:31;;;;;;;21.65;17.90;;;;;;;18.36;71.56;101450.03;7392000;19;20094;-61
2023/06/20 03:26:59;;;;;;;21.35;18.23;;;;;;;18.55;71.15;101445.59;7389794;19;20018;-61
2023/06/20 03:29:26;;;;;;;23.23;18.50;;;;;;;18.69;70.26;101456.66;7390065;19;20025;-61
2023/06/20 03:31:53;;;;;;;22.10;18.90;;;;;;;18.76;70.31;101451.56;7391793;19;20018;-62
2023/06/20 03:34:20;;;;;;;21.83;18.33;;;;;;;18.75;70.02;101450.72;7391798;19;20046;-61
2023/06/20 03:36:47;;;;;;;22.92;18.65;;;;;;;18.77;69.96;101449.72;7391459;19;20039;-61
2023/06/20 03:39:15;;;;;;;21.60;19.25;;;;;;;18.83;70.05;101451.81;7391437;19;20036;-62
2023/06/20 03:41:42;;;;;;;23.27;19.05;;;;;;;18.78;69.89;101452.28;7390429;19;20024;-59
2023/06/20 03:44:09;;;;;;;23.40;18.58;;;;;;;18.73;70.14;101447.38;7389523;19;20555;-60
2023/06/20 03:46:36;;;;;;;23.65;18.35;;;;;;;18.65;70.35;101447.22;7389367;19;20357;-59
2023/06/20 03:49:04;;;;;;;22.73;18.25;;;;;;;18.63;70.58;101443.00;7389566;19;20302;-61
2023/06/20 03:51:31;;;;;;;22.70;18.85;;;;;;;18.64;70.62;101448.22;7388053;19;20093;-61
2023/06/20 03:53:58;;;;;;;23.48;17.90;;;;;;;18.71;70.59;101443.13;7391049;19;20077;-61
2023/06/20 03:56:25;;;;;;;25.58;19.00;;;;;;;18.77;70.23;101442.50;7390690;19;20089;-61
2023/06/20 03:58:54;;;;;;;21.83;17.65;;;;;;;18.75;70.38;101448.03;7391232;19;20082;-61
2023/06/20 04:01:24;;;;;;;22.75;17.98;;;;;;;18.72;70.37;101452.88;7387586;19;20018;-60
2023/06/20 04:03:54;;;;;;;21.38;17.55;;;;;;;18.70;70.54;101446.78;7390774;19;20022;-61
2023/06/20 04:06:30;;;;;;;21.20;17.80;;;;;;;18.75;70.59;101458.78;7390697;19;20018;-61
2023/06/20 04:08:58;;;;;;;21.73;18.17;;;;;;;18.80;70.03;101452.13;7390913;19;20025;-60
2023/06/20 04:11:25;;;;;;;23.05;17.80;;;;;;;18.81;70.04;101452.00;7391264;19;20038;-65
2023/06/20 04:13:52;;;;;;;22.85;17.92;;;;;;;18.73;70.48;101451.84;7388568;19;20014;-67
2023/06/20 04:16:19;;;;;;;21.15;17.15;;;;;;;18.74;70.27;101454.41;7390089;19;20024;-63
2023/06/20 04:18:47;;;;;;;20.40;17.17;;;;;;;18.74;70.25;101448.22;7390911;19;20044;-63
2023/06/20 04:21:16;;;;;;;20.63;16.45;;;;;;;18.86;69.88;101456.91;7390055;19;20024;-63
2023/06/20 04:23:45;;;;;;;22.08;17.90;;;;;;;18.80;70.18;101447.59;7389172;19;20035;-64
2023/06/20 04:26:12;;;;;;;19.15;16.10;;;;;;;18.80;70.55;101450.28;7389823;19;20535;-63
2023/06/20 04:28:39;;;;;;;20.58;16.50;;;;;;;18.88;70.20;101450.38;7390628;19;20014;-63
2023/06/20 04:31:07;;;;;;;20.00;17.05;;;;;;;18.94;70.02;101457.00;7390849;19;20507;-67
2023/06/20 04:33:34;;;;;;;22.20;18.05;;;;;;;18.88;69.91;101455.72;7398299;19;20090;-62
2023/06/20 04:36:01;;;;;;;21.05;18.38;;;;;;;18.78;70.20;101449.59;7397496;19;20018;-63
2023/06/20 04:38:28;;;;;;;22.90;18.52;;;;;;;18.79;70.17;101448.59;7398311;19;20022;-62
2023/06/20 04:40:56;;;;;;;20.52;17.38;;;;;;;18.81;70.20;101449.31;7395750;19;20018;-63
2023/06/20 04:43:23;;;;;;;20.17;17.23;;;;;;;18.91;69.79;101450.06;7397585;19;20025;-62
2023/06/20 04:45:50;;;;;;;19.63;16.80;;;;;;;18.93;69.96;101452.63;7396939;19;20112;-63
2023/06/20 04:48:17;;;;;;;21.92;16.83;;;;;;;18.88;69.80;101449.53;7395592;19;20023;-62
2023/06/20 04:50:45;;;;;;;19.58;16.98;;;;;;;18.85;69.73;101449.81;7394082;19;20508;-66
2023/06/20 04:53:12;;;;;;;20.13;17.10;;;;;;;18.91;69.56;101441.19;7397414;19;20027;-66
2023/06/20 04:55:39;;;;;;;20.67;16.38;;;;;;;18.92;69.49;101443.69;7396335;19;20027;-67
2023/06/20 04:58:07;;;;;;;19.10;16.25;;;;;;;19.02;69.60;101446.34;7397196;19;20042;-67
2023/06/20 05:00:36;;;;;;;19.52;17.02;;;;;;;19.03;69.30;101447.19;7395738;19;20015;-67
2023/06/20 05:03:05;;;;;;;20.05;17.00;;;;;;;19.06;69.28;101447.72;7397930;19;20024;-68
2023/06/20 05:05:33;;;;;;;21.10;15.68;;;;;;;19.14;69.21;101447.81;7396823;19;20070;-67
2023/06/20 05:08:00;;;;;;;23.10;16.15;;;;;;;19.24;68.80;101451.28;7396678;19;20025;-65
2023/06/20 05:10:27;;;;;;;20.05;16.45;;;;;;;19.24;69.04;101453.13;7395150;19;20033;-65
2023/06/20 05:12:55;;;;;;;19.63;16.38;;;;;;;19.27;68.78;101451.94;7397553;19;20020;-66
2023/06/20 05:15:25;;;;;;;18.42;15.20;;;;;;;19.28;68.86;101448.28;7396774;19;20018;-62
2023/06/20 05:17:53;;;;;;;21.17;16.90;;;;;;;19.41;68.61;101451.44;7395881;19;20035;-64
2023/06/20 05:20:20;;;;;;;21.23;16.63;;;;;;;19.53;68.47;101458.25;7395909;19;20023;-65
2023/06/20 05:22:48;;;;;;;20.25;15.43;;;;;;;19.65;67.78;101459.75;7395253;19;20015;-65
2023/06/20 05:25:16;;;;;;;20.95;16.42;;;;;;;19.68;68.04;101459.41;7396271;19;20510;-64
2023/06/20 05:27:43;;;;;;;22.33;16.90;;;;;;;19.75;67.54;101462.34;7395499;19;20014;-65
2023/06/20 05:30:10;;;;;;;21.48;15.98;;;;;;;19.76;67.54;101458.66;7395204;19;20026;-65
2023/06/20 05:32:38;;;;;;;23.80;16.75;;;;;;;19.79;67.86;101469.09;7396239;19;20017;-65
2023/06/20 05:35:07;;;;;;;20.55;16.25;;;;;;;19.83;67.31;101467.78;7395802;19;20081;-65
2023/06/20 05:37:34;;;;;;;25.17;16.02;;;;;;;19.86;67.66;101462.09;7395421;19;20021;-65
2023/06/20 05:40:05;;;;;;;21.90;15.88;;;;;;;19.96;67.29;101467.38;7395301;19;20011;-65
2023/06/20 05:42:33;;;;;;;25.13;16.10;;;;;;;19.98;67.38;101465.38;7390536;19;20546;-65
2023/06/20 05:45:00;;;;;;;23.35;15.43;;;;;;;20.06;67.43;101456.53;7393706;19;20035;-66
2023/06/20 05:47:28;;;;;;;22.55;15.50;;;;;;;20.06;66.96;101451.13;7393766;19;20014;-66
2023/06/20 05:49:57;;;;;;;20.80;15.82;;;;;;;20.11;67.51;101451.50;7395366;19;20022;-66
2023/06/20 05:52:24;;;;;;;26.10;16.38;;;;;;;20.15;67.02;101451.03;7395778;19;20081;-66
2023/06/20 05:54:54;;;;;;;25.08;15.50;;;;;;;20.25;66.65;101456.31;7395475;19;20022;-71
2023/06/20 05:57:21;;;;;;;26.05;16.40;;;;;;;20.41;66.80;101455.53;7395333;19;20019;-67
2023/06/20 05:59:50;;;;;;;26.55;15.65;;;;;;;20.43;66.77;101459.78;7395156;19;20007;-65
2023/06/20 06:02:17;;;;;;;22.65;15.20;;;;;;;20.43;66.89;101453.56;7393487;19;20078;-63
2023/06/20 06:04:44;;;;;;;20.42;14.10;;;;;;;20.45;66.94;101460.47;7395306;19;20015;-63
2023/06/20 06:07:12;;;;;;;23.77;15.02;;;;;;;20.61;66.90;101462.44;7394638;19;20025;-69
2023/06/20 06:09:39;;;;;;;20.30;14.18;;;;;;;20.74;66.44;101461.13;7394689;19;20022;-69
2023/06/20 06:12:07;;;;;;;19.98;13.90;;;;;;;20.85;66.04;101469.75;7393637;19;20014;-69
2023/06/20 06:14:34;;;;;;;21.75;15.27;;;;;;;20.88;66.16;101463.22;7395477;19;20022;-63
2023/06/20 06:17:02;;;;;;;21.08;14.00;;;;;;;20.92;66.52;101461.88;7394658;19;20019;-64
2023/06/20 06:19:29;;;;;;;23.98;13.65;;;;;;;21.03;65.73;101466.13;7394854;19;20480;-62
2023/06/20 06:21:56;;;;;;;21.10;13.80;;;;;;;21.14;65.75;101465.81;7392996;19;20515;-81
2023/06/20 06:24:27;;;;;;;19.08;13.07;;;;;;;21.17;64.86;101469.00;7393529;19;20057;-69
2023/06/20 06:26:54;;;;;;;17.88;12.63;;;;;;;21.26;65.01;101467.19;7394006;19;20487;-69
2023/06/20 06:29:21;;;;;;;16.45;11.93;;;;;;;21.34;64.63;101471.78;7393923;19;20073;-69
2023/06/20 06:31:49;;;;;;;21.30;14.57;;;;;;;21.41;63.93;101470.94;7391916;19;20452;-69
2023/06/20 06:34:16;;;;;;;16.35;12.95;;;;;;;21.48;63.89;101463.00;7394358;19;20070;-69
2023/06/20 06:36:49;;;;;;;20.98;12.25;;;;;;;21.58;63.63;101466.41;7393436;19;20130;-65
2023/06/20 06:39:18;;;;;;;21.52;13.02;;;;;;;21.64;63.80;101460.34;7394028;19;20027;-65
2023/06/20 06:41:48;;;;;;;17.77;12.93;;;;;;;21.68;63.58;101443.84;7391789;19;20380;-65
2023/06/20 06:44:16;;;;;;;21.08;13.23;;;;;;;21.70;63.17;101449.88;7392978;19;20090;-62
2023/06/20 06:46:43;;;;;;;18.50;12.68;;;;;;;21.76;62.99;101458.16;7392821;19;20028;-61
2023/06/20 06:49:11;;;;;;;19.35;12.55;;;;;;;21.83;62.98;101458.31;7393937;19;20074;-61
2023/06/20 06:51:39;;;;;;;17.02;11.40;;;;;;;21.87;62.63;101463.22;7391273;19;20031;-61
2023/06/20 06:54:06;;;;;;;15.88;11.82;;;;;;;21.92;62.40;101462.69;7392313;19;20039;-61
2023/06/20 06:56:34;;;;;;;17.45;10.75;;;;;;;22.03;62.55;101465.03;7391105;19;20051;-63
2023/06/20 06:59:02;;;;;;;18.20;12.13;;;;;;;22.17;62.03;101468.06;7393382;19;20024;-63
2023/06/20 07:01:29;;;;;;;17.17;11.25;;;;;;;22.21;62.08;101461.31;7390433;19;20019;-64
2023/06/20 07:03:57;;;;;;;16.25;10.70;;;;;;;22.23;61.71;101457.44;7393539;19;20019;-63
2023/06/20 07:06:24;;;;;;;15.75;10.73;;;;;;;22.24;61.92;101455.56;7392730;19;20122;-63
2023/06/20 07:08:52;;;;;;;13.95;10.18;;;;;;;22.29;61.86;101453.22;7391738;19;20038;-63
2023/06/20 07:11:20;;;;;;;17.00;9.80;;;;;;;22.36;61.80;101446.09;7390212;19;20031;-63
2023/06/20 07:13:47;;;;;;;13.23;9.88;;;;;;;22.39;60.84;101453.84;7393586;19;20014;-63
2023/06/20 07:16:15;;;;;;;13.20;9.15;;;;;;;22.37;61.24;101464.84;7390089;19;20023;-63
2023/06/20 07:18:43;;;;;;;14.85;8.98;;;;;;;22.39;61.17;101460.09;7392607;19;20550;-63
2023/06/20 07:21:10;;;;;;;12.60;9.10;;;;;;;22.42;61.04;101472.41;7391269;19;20388;-63
2023/06/20 07:23:37;;;;;;;12.88;8.27;;;;;;;22.46;61.19;101473.75;7392204;19;20026;-63
2023/06/20 07:26:04;;;;;;;13.55;9.45;;;;;;;22.51;61.30;101478.63;7391362;19;20507;-63
2023/06/20 07:28:32;;;;;;;13.02;9.10;;;;;;;22.54;61.51;101479.09;7392694;19;20010;-69
2023/06/20 07:30:59;;;;;;;12.75;9.27;;;;;;;22.61;61.50;101485.50;7390026;19;20048;-68
2023/06/20 07:33:26;;;;;;;11.65;8.48;;;;;;;22.65;60.74;101474.34;7392355;19;20036;-68
2023/06/20 07:35:53;;;;;;;12.95;8.68;;;;;;;22.76;60.87;101487.47;7391172;19;20372;-68
2023/06/20 07:38:21;;;;;;;13.90;8.05;;;;;;;22.83;61.00;101485.75;7390859;19;20043;-66
2023/06/20 07:40:48;;;;;;;14.38;8.70;;;;;;;22.89;60.49;101482.34;7391068;19;20022;-69
2023/06/20 07:43:15;;;;;;;13.95;8.13;;;;;;;22.93;60.33;101483.72;7390377;19;20218;-68
2023/06/20 07:45:42;;;;;;;10.25;7.15;;;;;;;23.00;60.45;101484.69;7390659;19;20506;-67
2023/06/20 07:48:10;;;;;;;13.15;7.80;;;;;;;23.08;60.55;101483.81;7388442;19;20162;-69
2023/06/20 07:50:37;;;;;;;11.73;7.85;;;;;;;23.18;60.14;101481.72;7390584;19;20037;-69
2023/06/20 07:53:04;;;;;;;16.35;8.23;;;;;;;23.21;60.27;101484.09;7391108;19;20018;-68
2023/06/20 07:55:31;;;;;;;12.38;8.05;;;;;;;23.22;59.79;101476.81;7390389;19;20021;-69
2023/06/20 07:57:59;;;;;;;12.50;7.85;;;;;;;23.17;60.09;101481.91;7390843;19;20015;-68
2023/06/20 08:00:28;;;;;;;13.88;8.40;;;;;;;23.11;60.80;101481.59;7390524;19;20018;-69
2023/06/20 08:02:55;;;;;;;13.07;8.52;;;;;;;23.03;60.57;101487.03;7389752;19;20025;-65
2023/06/20 08:05:23;;;;;;;11.05;8.20;;;;;;;23.01;60.84;101483.69;7390878;19;20022;-65
2023/06/20 08:07:51;;;;;;;12.45;8.85;;;;;;;22.99;61.25;101476.78;7389837;19;20070;-65
2023/06/20 08:10:19;;;;;;;13.70;9.63;;;;;;;22.93;62.11;101477.47;7390588;19;20370;-65
2023/06/20 08:12:46;;;;;;;13.82;8.57;;;;;;;22.81;63.01;101472.41;7387796;19;20022;-65
2023/06/20 08:15:13;;;;;;;12.95;8.82;;;;;;;22.74;63.81;101474.16;7389051;19;20030;-65
2023/06/20 08:17:43;;;;;;;14.32;10.43;;;;;;;22.62;65.12;101467.44;7388152;19;20031;-66
2023/06/20 08:20:11;;;;;;;16.85;9.93;;;;;;;22.53;66.25;101465.81;7390294;19;20018;-65
2023/06/20 08:22:38;;;;;;;14.30;10.43;;;;;;;22.45;67.47;101465.81;7387756;19;20018;-65
2023/06/20 08:25:06;;;;;;;14.70;10.50;;;;;;;22.35;68.93;101457.91;7389004;19;20034;-65
2023/06/20 08:27:33;;;;;;;14.95;11.30;;;;;;;22.38;69.60;101455.72;7389915;19;20022;-64
2023/06/20 08:30:00;;;;;;;14.20;11.10;;;;;;;22.33;70.40;101457.25;7390184;19;20045;-64
2023/06/20 08:32:28;;;;;;;15.13;12.25;;;;;;;22.37;70.50;101447.81;7388385;19;20096;-65
2023/06/20 08:34:56;;;;;;;15.10;12.05;;;;;;;22.39;70.61;101445.75;7390219;19;20018;-64
2023/06/20 08:37:23;;;;;;;15.85;12.15;;;;;;;22.44;71.01;101451.50;7389523;19;20021;-64
2023/06/20 08:39:50;;;;;;;15.18;11.35;;;;;;;22.52;71.40;101445.22;7388537;19;20015;-64
2023/06/20 08:42:18;;;;;;;17.38;12.02;;;;;;;22.53;71.79;101442.34;7388949;19;20503;-64
2023/06/20 08:44:46;;;;;;;16.23;11.70;;;;;;;22.59;71.14;101433.56;7390071;19;20638;-64
2023/06/20 08:47:25;;;;;;;15.77;12.52;;;;;;;22.65;70.28;101423.06;7389403;19;20719;-64
2023/06/20 08:49:53;;;;;;;16.23;11.77;;;;;;;22.71;70.08;101419.66;7387867;19;20062;-64
2023/06/20 08:52:27;;;;;;;14.90;12.25;;;;;;;22.82;70.18;101422.81;7388644;19;20053;-64
2023/06/20 08:54:55;;;;;;;16.80;12.95;;;;;;;22.84;70.47;101430.72;7390233;19;20022;-65
2023/06/20 08:57:23;;;;;;;17.33;12.88;;;;;;;22.87;69.34;101423.09;7387310;19;20050;-64
2023/06/20 08:59:52;;;;;;;16.33;12.05;;;;;;;22.92;69.49;101419.91;7389328;19;20074;-65
2023/06/20 09:02:21;;;;;;;14.45;11.07;;;;;;;22.99;69.18;101414.63;7387086;19;20022;-64
2023/06/20 09:05:03;;;;;;;15.48;12.20;;;;;;;23.13;68.31;101407.63;7387616;19;20082;-65
2023/06/20 09:07:35;;;;;;;13.48;10.68;;;;;;;23.19;68.72;101418.53;7388495;19;20039;-64
2023/06/20 09:10:04;;;;;;;14.18;11.95;;;;;;;23.30;68.19;101414.59;7389238;19;20043;-65
2023/06/20 09:12:45;;;;;;;15.20;12.52;;;;;;;23.46;68.58;101410.91;7389954;19;20033;-65
2023/06/20 09:15:18;;;;;;;15.57;12.27;;;;;;;23.44;68.23;101411.09;7389430;19;20406;-64
2023/06/20 09:17:51;;;;;;;17.95;11.93;;;;;;;23.46;67.55;101409.03;7388537;19;20018;-64
2023/06/20 09:20:19;;;;;;;14.00;11.27;;;;;;;23.38;67.30;101411.81;7395703;19;20018;-64
2023/06/20 09:22:47;;;;;;;14.77;11.10;;;;;;;23.43;66.77;101411.25;7394789;19;20018;-64
2023/06/20 09:25:21;;;;;;;14.73;11.05;;;;;;;23.46;66.76;101409.03;7394377;19;20093;-64
2023/06/20 09:27:50;;;;;;;14.02;11.60;;;;;;;23.46;66.29;101408.19;7395772;19;20014;-65
2023/06/20 09:30:17;;;;;;;16.35;11.70;;;;;;;23.41;66.86;101403.34;7395729;19;20022;-65
2023/06/20 09:32:45;;;;;;;16.38;11.00;;;;;;;23.41;66.87;101400.66;7396116;19;20547;-64
2023/06/20 09:35:16;;;;;;;16.80;12.18;;;;;;;23.43;66.83;101406.72;7396031;19;20036;-64
2023/06/20 09:37:48;;;;;;;13.93;11.07;;;;;;;23.42;66.71;101402.31;7395624;19;20019;-65
2023/06/20 09:40:24;;;;;;;13.75;11.32;;;;;;;23.41;66.81;101405.22;7395027;19;20018;-64
2023/06/20 09:42:56;;;;;;;15.82;11.20;;;;;;;23.33;67.27;101403.41;7394311;19;20032;-65
2023/06/20 09:45:24;;;;;;;16.15;12.13;;;;;;;23.28;66.70;101408.53;7395391;19;20352;-65
2023/06/20 09:47:55;;;;;;;14.38;11.98;;;;;;;23.29;66.08;101410.22;7394149;19;20044;-65
2023/06/20 09:50:24;;;;;;;16.35;11.43;;;;;;;23.25;65.90;101406.19;7394318;19;20033;-65
2023/06/20 09:53:02;;;;;;;14.38;12.10;;;;;;;23.24;66.31;101415.31;7395795;19;20019;-65
2023/06/20 09:55:34;;;;;;;12.90;10.82;;;;;;;23.21;66.34;101405.72;7395059;19;20491;-65
2023/06/20 09:58:04;;;;;;;14.00;11.43;;;;;;;23.22;66.39;101404.69;7394191;19;20040;-65
2023/06/20 10:00:35;;;;;;;15.15;11.75;;;;;;;23.27;66.27;101407.66;7394086;19;20019;-65
2023/06/20 10:03:11;;;;;;;16.08;12.23;;;;;;;23.37;66.67;101412.84;7393578;19;20046;-65
2023/06/20 10:05:41;;;;;;;13.55;11.07;;;;;;;23.40;66.70;101408.94;7394388;19;20028;-65
2023/06/20 10:08:09;;;;;;;14.45;11.95;;;;;;;23.46;66.48;101405.50;7394883;19;20077;-65
2023/06/20 10:10:36;;;;;;;13.65;10.88;;;;;;;23.48;66.17;101393.50;7393527;19;20018;-57
2023/06/20 10:13:05;;;;;;;15.00;11.40;;;;;;;23.62;65.74;101408.09;7394721;19;20011;-56
2023/06/20 10:15:32;;;;;;;15.57;11.40;;;;;;;23.69;65.66;101402.78;7394508;19;20491;-56
2023/06/20 10:18:00;;;;;;;16.90;11.63;;;;;;;23.80;65.30;101395.06;7394106;19;20018;-56
2023/06/20 10:20:33;;;;;;;15.20;11.55;;;;;;;23.95;65.09;101389.69;7394102;19;20026;-57
2023/06/20 10:23:05;;;;;;;13.23;11.05;;;;;;;24.00;64.43;101384.56;7392975;19;20025;-56
2023/06/20 10:25:34;;;;;;;13.50;11.00;;;;;;;24.14;64.56;101382.88;7394165;19;20011;-57
2023/06/20 10:28:03;;;;;;;14.65;10.70;;;;;;;24.29;63.44;101380.16;7394666;19;20019;-56
2023/06/20 10:30:45;;;;;;;13.73;9.90;;;;;;;24.46;62.75;101381.69;7393309;19;20078;-56
2023/06/20 10:33:13;;;;;;;13.70;8.90;;;;;;;24.51;62.92;101371.13;7390070;19;20015;-57
2023/06/20 10:35:48;;;;;;;11.88;8.85;;;;;;;24.63;62.08;101374.19;7393215;19;20023;-57
2023/06/20 10:38:16;;;;;;;13.30;8.82;;;;;;;24.65;61.69;101377.56;7394218;19;20043;-57
2023/06/20 10:40:44;;;;;;;10.15;7.43;;;;;;;24.65;60.99;101368.56;7392800;19;20022;-57
2023/06/20 10:43:18;;;;;;;10.80;8.48;;;;;;;24.73;60.47;101371.19;7390661;19;20523;-57
2023/06/20 10:45:53;;;;;;;12.65;8.57;;;;;;;24.77;60.18;101362.47;7392603;19;20058;-57
2023/06/20 10:48:21;;;;;;;10.82;8.23;;;;;;;24.75;60.08;101361.81;7393526;19;20043;-57
2023/06/20 10:50:48;;;;;;;11.68;8.55;;;;;;;24.80;59.58;101351.25;7392095;19;20018;-56
2023/06/20 10:53:16;;;;;;;10.60;8.48;;;;;;;24.82;60.05;101358.34;7391931;19;20122;-57
2023/06/20 10:55:43;;;;;;;10.65;7.80;;;;;;;24.85;60.07;101347.97;7392096;19;20491;-56
2023/06/20 10:58:13;;;;;;;9.88;7.82;;;;;;;24.84;59.76;101357.13;7393287;19;20096;-57
2023/06/20 11:00:58;;;;;;;13.93;8.23;;;;;;;24.83;59.88;101343.75;7392213;19;20018;-57
2023/06/20 11:03:25;;;;;;;12.50;8.00;;;;;;;24.82;59.72;101344.78;7392293;19;20019;-57
2023/06/20 11:05:56;;;;;;;11.32;8.88;;;;;;;24.77;59.62;101345.38;7392821;19;20026;-57
2023/06/20 11:08:25;;;;;;;10.07;7.80;;;;;;;24.73;59.71;101352.22;7390947;19;20014;-57
2023/06/20 11:10:53;;;;;;;9.20;7.28;;;;;;;24.71;59.34;101343.44;7391933;19;20018;-58
2023/06/20 11:13:23;;;;;;;9.60;6.60;;;;;;;24.70;59.58;101347.16;7392675;19;20019;-58
2023/06/20 11:15:50;;;;;;;10.20;7.30;;;;;;;24.70;59.19;101342.59;7392467;19;20018;-58
2023/06/20 11:18:18;;;;;;;11.60;7.20;;;;;;;24.72;59.41;101342.38;7392485;19;20059;-58
2023/06/20 11:20:45;;;;;;;9.73;7.22;;;;;;;24.84;59.09;101342.72;7392393;19;20015;-59
2023/06/20 11:23:13;;;;;;;11.10;7.40;;;;;;;24.92;58.96;101340.75;7390459;19;20010;-58